• Join FlightAware (Why Join?)
  • Login
  • US Flag 
07:06PM EDT


 

Airport Tracker/Info


-or-


 

Live Flight TrackerFlight Track Log ✈ SWA3247 ✈ 25-Jun-2013 ✈ KLAS - KALB

Flight Track Log - Related Links

Times and Time Zones

All times are in EDT time to prevent confusion due to time zone crossing. See the SWA3247 flight status page for this flight to view local times or setup timezone preferences in your user account.

Time Position Orientation Groundspeed Altitude Reporting Facility
EDT Latitude Longitude Course Direction KTS MPH feet Rate Location/Type
08:50PM 36.0767 -115.1706 270° West 169 194 3,400  Level Los Angeles Center
08:51PM 36.0764 -115.2186 270° West 196 226 4,400 1,980 Climbing Los Angeles Center
08:52PM 36.0983 -115.2869 292° West 221 254 7,000 2,760 Climbing Los Angeles Center
08:53PM 36.1656 -115.2719 10° North 277 319 9,800 2,160 Climbing Los Angeles Center
08:54PM 36.1956 -115.1714 70° East 320 368 11,500 1,560 Climbing Los Angeles Center
08:55PM 36.1986 -115.0500 88° East 341 392 13,200 2,100 Climbing Los Angeles Center
08:56PM 36.2000 -114.8869 89° East 378 435 15,900 2,460 Climbing Los Angeles Center
08:57PM 36.2019 -114.7478 89° East 393 452 18,300 2,220 Climbing Los Angeles Center
08:58PM 36.2008 -114.6019 90° East 408 470 20,600 1,980 Climbing Los Angeles Center
08:59PM 36.1989 -114.4517 91° East 423 487 22,400 1,680 Climbing Los Angeles Center
09:00PM 36.1936 -114.2956 92° East 441 507 24,100 1,500 Climbing Los Angeles Center
09:01PM 36.2047 -114.1344 85° East 466 536 25,600 1,500 Climbing Los Angeles Center
09:02PM 36.2261 -113.9711 81° East 479 551 27,200 1,500 Climbing Los Angeles Center
09:03PM 36.2492 -113.7686 82° East 492 566 28,800 1,560 Climbing Los Angeles Center
09:04PM 36.2708 -113.5967 81° East 502 578 30,500 1,800 Climbing Los Angeles Center
09:05PM 36.3256 -113.4386 67° East 500 575 32,500 1,740 Climbing Los Angeles Center
09:06PM 36.3778 -113.2828 67° East 492 566 34,100 1,440 Climbing Los Angeles Center
09:07PM 36.4294 -113.1322 67° East 490 564 35,500 1,380 Climbing Los Angeles Center
09:08PM 36.4928 -112.9472 67° East 487 560 37,000 720 Climbing Los Angeles Center
09:09PM 36.5439 -112.7950 67° East 483 556 37,000  Level Los Angeles Center
09:10PM 36.5944 -112.6431 67° East 480 552 37,000  Level Los Angeles Center
09:11PM 36.6458 -112.4908 67° East 481 554 37,000  Level Los Angeles Center
09:12PM 36.6972 -112.3386 67° East 480 552 37,000  Level Los Angeles Center
09:13PM 36.7481 -112.1869 67° East 479 551 37,000  Level Los Angeles Center
09:14PM 36.8092 -112.0028 67° East 481 554 37,000  Level Los Angeles Center
09:15PM 36.8597 -111.8472 68° East 484 557 37,000  Level Los Angeles Center
09:16PM 36.8917 -111.7536 67° East 486 559 37,000  Level Denver Center
09:17PM 36.9422 -111.5972 68° East 487 560 37,000  Level Denver Center
09:18PM 37.0039 -111.4094 68° East 488 562 37,000  Level Denver Center
09:19PM 37.0494 -111.2567 69° East 477 549 37,000  Level Denver Center
09:20PM 37.0994 -111.1000 68° East 484 557 37,000  Level Denver Center
09:21PM 37.1500 -110.9444 68° East 484 557 37,000  Level Denver Center
09:22PM 37.1989 -110.7872 69° East 487 560 37,000  Level Denver Center
09:23PM 37.2478 -110.6294 69° East 486 559 37,000  Level Denver Center
09:24PM 37.2978 -110.4717 68° East 487 560 37,000  Level Denver Center
09:25PM 37.3561 -110.2828 69° East 487 560 37,000  Level Denver Center
09:26PM 37.4067 -110.1222 68° East 487 560 37,000  Level Denver Center
09:27PM 37.4519 -109.9708 69° East 484 557 37,000  Level Denver Center
09:28PM 37.5072 -109.7919 69° East 487 560 37,000  Level Denver Center
09:29PM 37.5533 -109.6406 69° East 483 556 37,000  Level Denver Center
09:30PM 37.5983 -109.4875 70° East 485 558 37,000  Level Denver Center
09:31PM 37.6533 -109.3078 69° East 488 562 37,000  Level Denver Center
09:32PM 37.6989 -109.1519 70° East 492 566 37,000  Level Denver Center
09:34PM 37.7517 -108.9714 70° East 490 564 37,000  Level Denver Center
09:35PM 37.7972 -108.8158 70° East 492 566 37,000  Level Denver Center
09:36PM 37.8422 -108.6611 70° East 490 564 37,000  Level Denver Center
09:37PM 37.8950 -108.4831 69° East 485 558 37,000  Level Denver Center
09:38PM 37.9394 -108.3292 70° East 485 558 37,000  Level Denver Center
09:39PM 37.9911 -108.1522 70° East 482 555 37,000  Level Denver Center
09:40PM 38.0353 -107.9950 70° East 489 563 37,000  Level Denver Center
09:41PM 38.0850 -107.8158 71° East 484 557 37,000  Level Denver Center
09:42PM 38.1281 -107.6639 70° East 481 554 37,000  Level Denver Center
09:43PM 38.1792 -107.4822 70° East 485 558 37,000  Level Denver Center
09:44PM 38.2222 -107.3289 70° East 483 556 37,000  Level Denver Center
09:45PM 38.2650 -107.1758 70° East 487 560 37,000  Level Denver Center
09:46PM 38.3094 -107.0114 71° East 491 565 37,000  Level Denver Center
09:47PM 38.3533 -106.8500 71° East 487 560 37,000  Level Denver Center
09:48PM 38.4064 -106.6539 71° East 490 564 37,000  Level Denver Center
09:49PM 38.4500 -106.4906 71° East 489 563 37,000  Level Denver Center
09:50PM 38.4933 -106.3267 71° East 490 564 37,000  Level Denver Center
09:51PM 38.5386 -106.1581 71° East 486 559 37,000  Level Denver Center
09:52PM 38.5867 -105.9772 71° East 482 555 37,000  Level Denver Center
09:53PM 38.6197 -105.8561 71° East 480 552 37,000  Level Denver Center
09:54PM 38.6683 -105.6631 72° East 478 550 37,000  Level Denver Center
09:55PM 38.7106 -105.5039 71° East 475 547 37,000  Level Denver Center
09:56PM 38.7508 -105.3425 72° East 478 550 37,000  Level Denver Center
09:57PM 38.8011 -105.1492 71° East 477 549 37,000  Level Denver Center
09:58PM 38.8422 -104.9883 72° East 480 552 37,000  Level Denver Center
09:59PM 38.8825 -104.8256 72° East 483 556 37,000  Level Denver Center
10:00PM 38.9228 -104.6647 72° East 477 549 37,000  Level Denver Center
10:01PM 38.9631 -104.5039 72° East 477 549 37,000  Level Denver Center
10:02PM 39.0097 -104.3144 72° East 471 542 37,000  Level Denver Center
10:03PM 39.0492 -104.1558 72° East 470 541 37,000  Level Denver Center
10:04PM 39.0883 -103.9956 72° East 472 543 37,000  Level Denver Center
10:05PM 39.1269 -103.8367 73° East 469 540 37,000  Level Denver Center
10:06PM 39.1650 -103.6767 73° East 469 540 37,000  Level Denver Center
10:08PM 39.2036 -103.5169 73° East 470 541 37,000  Level Denver Center
10:09PM 39.2492 -103.3253 73° East 467 537 37,000  Level Denver Center
10:10PM 39.2869 -103.1647 73° East 467 537 37,000  Level Denver Center
10:11PM 39.3233 -103.0064 73° East 463 533 37,000  Level Denver Center
10:12PM 39.3597 -102.8475 73° East 463 533 37,000  Level Denver Center
10:13PM 39.3964 -102.6894 73° East 461 531 37,000  Level Denver Center
10:14PM 39.4325 -102.5306 74° East 462 532 37,000  Level Denver Center
10:15PM 39.4769 -102.3356 73° East 464 534 37,000  Level Denver Center
10:16PM 39.5117 -102.1836 73° East 461 531 37,000  Level Denver Center
10:17PM 39.5475 -102.0303 73° East 465 535 37,000  Level Denver Center
10:18PM 39.5858 -101.8494 75° East 466 536 37,000  Level Denver Center
10:19PM 39.6203 -101.6953 74° East 467 537 37,000  Level Denver Center
10:20PM 39.6589 -101.5117 75° East 473 544 37,000  Level Denver Center
10:21PM 39.6925 -101.3569 74° East 468 539 37,000  Level Denver Center
10:22PM 39.7322 -101.1764 74° East 468 539 37,000  Level Denver Center
10:23PM 39.7653 -101.0208 75° East 467 537 37,000  Level Denver Center
10:24PM 39.8036 -100.8389 75° East 468 539 37,000  Level Denver Center
10:25PM 39.8361 -100.6839 75° East 467 537 37,000  Level Denver Center
10:26PM 39.8742 -100.5008 75° East 471 542 37,000  Level Denver Center
10:27PM 39.9061 -100.3456 75° East 468 539 37,000  Level Denver Center
10:28PM 39.9428 -100.1669 75° East 471 542 37,000  Level Denver Center
10:29PM 39.9769 -100.0036 75° East 468 539 37,000  Level Denver Center
10:30PM 40.0097 -99.8361 76° East 475 547 37,000  Level Denver Center
10:31PM 40.0425 -99.6719 75° East 472 543 37,000  Level Denver Center
10:32PM 40.0761 -99.5064 75° East 473 544 37,000  Level Denver Center
10:33PM 40.1156 -99.3056 76° East 477 549 37,000  Level Denver Center
10:34PM 40.1486 -99.1386 75° East 478 550 37,000  Level Denver Center
10:36PM 40.1928 -98.9044 76° East 480 552 37,000  Level Minneapolis Center
10:37PM 40.2264 -98.7353 75° East 482 555 37,000  Level Minneapolis Center
10:38PM 40.2583 -98.5639 76° East 486 559 37,000  Level Minneapolis Center
10:39PM 40.2967 -98.3592 76° East 486 559 37,000  Level Minneapolis Center
10:40PM 40.3283 -98.1883 76° East 485 558 37,000  Level Minneapolis Center
10:41PM 40.3592 -98.0172 77° East 485 558 37,000  Level Minneapolis Center
10:42PM 40.3903 -97.8444 77° East 487 560 37,000  Level Minneapolis Center
10:43PM 40.4225 -97.6728 76° East 487 560 37,000  Level Minneapolis Center
10:44PM 40.4525 -97.5019 77° East 484 557 37,000 480 Level Minneapolis Center
10:45PM 40.4869 -97.3103 77° East 485 558 38,100 960 Climbing Minneapolis Center
10:46PM 40.5164 -97.1403 77° East 482 555 39,000 420 Climbing Minneapolis Center
10:47PM 40.5461 -96.9711 77° East 477 549 39,000  Level Minneapolis Center
10:48PM 40.5750 -96.8008 77° East 478 550 39,000  Level Minneapolis Center
10:49PM 40.6042 -96.6331 77° East 473 544 39,000  Level Minneapolis Center
10:50PM 40.6328 -96.4633 77° East 476 548 39,000  Level Minneapolis Center
10:51PM 40.6675 -96.2600 77° East 478 550 39,000  Level Minneapolis Center
10:52PM 40.6953 -96.0900 78° East 477 549 39,000  Level Minneapolis Center
10:53PM 40.7219 -95.9206 78° East 477 549 39,000  Level Minneapolis Center
10:54PM 40.7511 -95.7517 77° East 476 548 39,000  Level Minneapolis Center
10:55PM 40.7778 -95.5803 78° East 480 552 39,000  Level Minneapolis Center
10:56PM 40.8050 -95.4072 78° East 484 557 39,000  Level Minneapolis Center
10:57PM 40.8339 -95.2344 77° East 484 557 39,000  Level Minneapolis Center
10:58PM 40.8656 -95.0269 79° East 483 556 39,000  Level Minneapolis Center
10:59PM 40.8928 -94.8519 78° East 486 559 39,000  Level Minneapolis Center
11:00PM 40.9192 -94.6772 79° East 486 559 39,000  Level Minneapolis Center
11:01PM 40.9475 -94.4967 78° East 486 559 39,000  Level Minneapolis Center
11:02PM 40.9728 -94.3219 79° East 487 560 39,000  Level Minneapolis Center
11:04PM 40.9983 -94.1464 79° East 489 563 39,000  Level Minneapolis Center
11:05PM 41.0236 -93.9697 79° East 491 565 39,000  Level Minneapolis Center
11:06PM 41.0492 -93.7914 79° East 495 570 39,000  Level Minneapolis Center
11:07PM 41.0758 -93.6156 79° East 492 566 39,000  Level Minneapolis Center
11:08PM 41.1044 -93.4072 80° East 484 557 39,000  Level Minneapolis Center
11:09PM 41.1300 -93.2314 79° East 485 558 39,000  Level Minneapolis Center
11:10PM 41.1536 -93.0553 80° East 486 559 39,000  Level Minneapolis Center
11:11PM 41.1783 -92.8797 79° East 486 559 39,000  Level Minneapolis Center
11:12PM 41.2019 -92.7019 80° East 489 563 39,000  Level Minneapolis Center
11:13PM 41.2258 -92.5253 80° East 489 563 39,000  Level Minneapolis Center
11:14PM 41.2494 -92.3489 80° East 487 560 39,000  Level Minneapolis Center
11:15PM 41.2761 -92.1353 81° East 489 563 39,000  Level Minneapolis Center
11:16PM 41.2983 -91.9581 80° East 489 563 39,000  Level Minneapolis Center
11:17PM 41.3161 -91.8175 80° East 487 560 39,000  Level Minneapolis Center
11:18PM 41.3456 -91.5850 80° East 481 554 39,000  Level Chicago Center
11:19PM 41.3697 -91.3797 81° East 476 548 39,000  Level Chicago Center
11:20PM 41.3903 -91.2208 80° East 475 547 39,000  Level Chicago Center
11:21PM 41.4100 -91.0494 81° East 470 541 39,000  Level Chicago Center
11:22PM 41.4300 -90.8800 81° East 465 535 39,000  Level Chicago Center
11:23PM 41.4497 -90.7083 81° East 467 537 39,000  Level Chicago Center
11:24PM 41.4692 -90.5378 81° East 465 535 39,000  Level Chicago Center
11:25PM 41.4933 -90.3306 81° East 469 540 39,000  Level Chicago Center
11:26PM 41.5122 -90.1564 82° East 472 543 39,000  Level Chicago Center
11:27PM 41.5317 -89.9822 81° East 473 544 39,000  Level Chicago Center
11:28PM 41.5506 -89.8081 82° East 474 545 39,000  Level Chicago Center
11:29PM 41.5697 -89.6319 82° East 478 550 39,000  Level Chicago Center
11:30PM 41.5883 -89.4539 82° East 478 550 39,000  Level Chicago Center
11:31PM 41.6022 -89.2819 84° East 472 543 39,000  Level Chicago Center
11:32PM 41.6214 -89.1058 82° East 477 549 39,000  Level Chicago Center
11:33PM 41.6400 -88.9267 82° East 485 558 39,000  Level Chicago Center
11:34PM 41.6578 -88.7456 82° East 492 566 39,000  Level Chicago Center
11:35PM 41.6789 -88.5317 82° East 484 557 39,000  Level Chicago Center
11:36PM 41.6964 -88.3503 83° East 488 562 39,000  Level Chicago Center
11:38PM 41.7133 -88.1700 83° East 486 559 39,000  Level Chicago Center
11:39PM 41.7292 -87.9881 83° East 487 560 39,000  Level Chicago Center
11:40PM 41.7464 -87.8072 83° East 488 562 39,000  Level Chicago Center
11:41PM 41.7611 -87.6278 84° East 487 560 39,000  Level Chicago Center
11:42PM 41.7767 -87.4500 83° East 482 555 39,000  Level Chicago Center
11:43PM 41.7928 -87.2747 83° East 479 551 39,000  Level Chicago Center
11:44PM 41.8067 -87.0972 84° East 480 552 39,000  Level Chicago Center
11:45PM 41.8219 -86.9217 83° East 478 550 39,000  Level Chicago Center
11:46PM 41.8383 -86.7106 84° East 477 549 39,000  Level Chicago Center
11:47PM 41.8511 -86.5450 84° East 481 554 39,000  Level Chicago Center
11:48PM 41.8644 -86.3656 84° East 484 557 39,000  Level Chicago Center
11:49PM 41.8781 -86.1875 84° East 483 556 39,000  Level Chicago Center
11:50PM 41.8917 -86.0075 84° East 483 556 39,000  Level Chicago Center
11:51PM 41.9056 -85.8272 84° East 484 557 39,000  Level Chicago Center
11:52PM 41.9189 -85.6456 84° East 486 559 39,000  Level Chicago Center
11:53PM 41.9308 -85.4631 85° East 487 560 39,000  Level Chicago Center
11:54PM 41.9450 -85.2825 84° East 482 555 39,000  Level Chicago Center
11:55PM 41.9564 -85.1056 85° East 474 545 39,000  Level Chicago Center
11:56PM 41.9661 -84.9264 86° East 479 551 39,000  Level Chicago Center
11:57PM 41.9783 -84.7336 85° East 491 565 39,000  Level Chicago Center
11:58PM 41.9903 -84.5553 85° East 484 557 39,000  Level Chicago Center
11:59PM 41.9997 -84.3750 86° East 484 557 39,000  Level Chicago Center
11:59PM 42.0053 -84.2608 86° East 475 547 39,000  Level Cleveland Center
12:00AM 42.0128 -84.0822 87° East 475 547 39,000  Level Cleveland Center
12:01AM 42.0244 -83.9011 85° East 475 547 39,000  Level Cleveland Center
12:02AM 42.0339 -83.7172 86° East 475 547 39,000  Level Cleveland Center
12:03AM 42.0475 -83.5136 85° East 486 559 39,000  Level Cleveland Center
12:04AM 42.0561 -83.3350 86° East 491 565 39,000  Level Cleveland Center
12:05AM 42.0600 -83.1675 88° East 491 565 39,000  Level Cleveland Center
12:06AM 42.0703 -82.9861 86° East 491 565 39,000  Level Cleveland Center
12:07AM 42.0781 -82.8072 87° East 486 559 39,000  Level Cleveland Center
12:08AM 42.0836 -82.6256 88° East 486 559 39,000  Level Cleveland Center
12:09AM 42.0928 -82.4411 86° East 480 552 39,000  Level Cleveland Center
12:10AM 42.0997 -82.2650 87° East 475 547 39,000  Level Cleveland Center
12:11AM 42.1106 -82.0861 85° East 475 547 39,000  Level Cleveland Center
12:12AM 42.1192 -81.9044 86° East 475 547 39,000  Level Cleveland Center
12:13AM 42.1275 -81.7031 87° East 481 554 39,000  Level Cleveland Center
12:14AM 42.1311 -81.5211 88° East 481 554 39,000  Level Cleveland Center
12:15AM 42.1389 -81.3364 87° East 489 563 39,000  Level Cleveland Center
12:16AM 42.1442 -81.1489 88° East 494 568 39,000  Level Cleveland Center
12:17AM 42.1511 -80.9697 87° East 494 568 39,000  Level Cleveland Center
12:18AM 42.1558 -80.7847 88° East 489 563 39,000  Level Cleveland Center
12:19AM 42.1725 -80.5972 83° East 495 570 39,000  Level Cleveland Center
12:20AM 42.1911 -80.4347 81° East 495 570 39,000  Level Cleveland Center
12:21AM 42.2117 -80.2525 81° East 500 575 39,000  Level Cleveland Center
12:22AM 42.2319 -80.0644 82° East 500 575 39,000  Level Cleveland Center
12:23AM 42.2517 -79.8903 81° East 495 570 39,000  Level Cleveland Center
12:24AM 42.2733 -79.7050 81° East 495 570 39,000  Level Cleveland Center
12:25AM 42.2928 -79.5222 82° East 490 564 39,000  Level Cleveland Center
12:26AM 42.3117 -79.3336 82° East 490 564 39,000  Level Cleveland Center
12:27AM 42.3306 -79.1508 82° East 490 564 39,000  Level Cleveland Center
12:28AM 42.3508 -78.9619 82° East 490 564 39,000  Level Cleveland Center
12:29AM 42.3689 -78.7789 82° East 495 570 39,000  Level Cleveland Center
12:30AM 42.3869 -78.5958 82° East 495 570 39,000  Level Cleveland Center
12:31AM 42.4044 -78.4094 83° East 495 570 39,000  Level Cleveland Center
12:32AM 42.4214 -78.2233 83° East 495 570 39,000  Level Cleveland Center
12:33AM 42.4364 -78.0428 84° East 495 570 39,000 -300 Level Cleveland Center
12:34AM 42.4531 -77.8561 83° East 495 570 38,500 -780 Descending Cleveland Center
12:35AM 42.4736 -77.6753 81° East 490 564 37,500 -1,020 Descending Cleveland Center
12:36AM 42.4875 -77.4886 84° East 490 564 36,500 -900 Descending Cleveland Center
12:37AM 42.5031 -77.2992 84° East 495 570 35,700 -960 Descending Cleveland Center
12:40AM 42.5394 -76.8592 83° East 495 570 33,400 -1,020 Descending Boston Center
12:41AM 42.5550 -76.6686 84° East 501 577 32,400 -1,020 Descending Boston Center
12:42AM 42.5703 -76.4778 84° East 501 577 31,400 -1,020 Descending Boston Center
12:43AM 42.5853 -76.2869 84° East 501 577 30,400 -1,080 Descending Boston Center
12:44AM 42.6025 -76.0819 83° East 501 577 29,300 -1,080 Descending Boston Center
12:45AM 42.6147 -75.8964 85° East 496 571 28,300 -1,440 Descending Boston Center
12:46AM 42.6283 -75.7194 84° East 491 565 26,500 -1,920 Descending Boston Center
12:47AM 42.6408 -75.5619 84° East 475 547 24,500 -1,980 Descending Boston Center
12:48AM 42.6517 -75.3931 85° East 459 528 22,600 -2,100 Descending Boston Center
12:49AM 42.6600 -75.2297 86° East 439 505 20,400 -2,280 Descending Boston Center
12:50AM 42.6719 -75.0750 84° East 427 491 18,100 -2,220 Descending Boston Center
12:51AM 42.6797 -74.9228 86° East 411 473 16,000 -2,100 Descending Boston Center
12:52AM 42.6892 -74.7706 85° East 398 458 13,900 -2,280 Descending Boston Center
12:52AM 42.6956 -74.6578 86° East 384 442 12,300 -1,500 Descending Boston Center
12:54AM 42.7069 -74.4942 85° East 364 419 11,000 -960 Descending Boston Center
12:55AM 42.7194 -74.3817 81° East 323 372 10,200 -1,320 Descending Boston Center
12:56AM 42.7547 -74.2583 69° East 312 359 8,600 -1,740 Descending Boston Center
12:57AM 42.7856 -74.1517 68° East 305 351 6,800 -1,740 Descending Boston Center
12:58AM 42.8164 -74.0506 67° East 287 330 5,200 -1,380 Descending Boston Center
12:59AM 42.8447 -73.9550 68° East 272 313 4,100 -1,440 Descending Boston Center
01:00AM 42.8519 -73.8675 84° East 220 253 2,300 -1,260 Descending Boston Center
01:01AM 42.8256 -73.8103 122° Southeast 163 188 1,600 -780 Descending Boston Center
01:02AM 42.7839 -73.8064 176° South 136 157 800 -840 Descending Boston Center